sensor_id;sensor_type;location;lat;lon;timestamp;temperature;humidity
43581;DHT22;29175;51.030;4.606;2023-05-02T00:00:30;13.70;99.90
43581;DHT22;29175;51.030;4.606;2023-05-02T00:02:56;13.60;99.90
43581;DHT22;29175;51.030;4.606;2023-05-02T00:05:22;13.70;99.90
43581;DHT22;29175;51.030;4.606;2023-05-02T00:07:49;14.00;99.90
43581;DHT22;29175;51.030;4.606;2023-05-02T00:10:15;13.80;99.90
43581;DHT22;29175;51.030;4.606;2023-05-02T00:12:41;13.60;99.90
43581;DHT22;29175;51.030;4.606;2023-05-02T00:15:07;13.70;99.90
43581;DHT22;29175;51.030;4.606;2023-05-02T00:17:33;13.50;99.90
43581;DHT22;29175;51.030;4.606;2023-05-02T00:19:59;13.60;99.90
43581;DHT22;29175;51.030;4.606;2023-05-02T00:22:25;13.40;99.90
43581;DHT22;29175;51.030;4.606;2023-05-02T00:24:55;13.50;99.90
43581;DHT22;29175;51.030;4.606;2023-05-02T00:27:22;13.30;99.90
43581;DHT22;29175;51.030;4.606;2023-05-02T00:29:48;13.30;99.90
43581;DHT22;29175;51.030;4.606;2023-05-02T00:32:13;13.30;99.90
43581;DHT22;29175;51.030;4.606;2023-05-02T00:34:39;13.30;99.90
43581;DHT22;29175;51.030;4.606;2023-05-02T00:37:05;13.20;99.90
43581;DHT22;29175;51.030;4.606;2023-05-02T00:39:33;13.40;99.90
43581;DHT22;29175;51.030;4.606;2023-05-02T00:41:59;13.50;99.90
43581;DHT22;29175;51.030;4.606;2023-05-02T00:44:26;13.60;99.90
43581;DHT22;29175;51.030;4.606;2023-05-02T00:46:55;13.60;99.90
43581;DHT22;29175;51.030;4.606;2023-05-02T00:49:22;13.40;99.90
43581;DHT22;29175;51.030;4.606;2023-05-02T00:51:47;13.20;99.90
43581;DHT22;29175;51.030;4.606;2023-05-02T00:54:13;13.10;99.90
43581;DHT22;29175;51.030;4.606;2023-05-02T00:56:39;13.00;99.90
43581;DHT22;29175;51.030;4.606;2023-05-02T00:59:06;13.30;99.90
43581;DHT22;29175;51.030;4.606;2023-05-02T01:01:52;13.40;99.90
43581;DHT22;29175;51.030;4.606;2023-05-02T01:12:59;13.60;99.90
43581;DHT22;29175;51.030;4.606;2023-05-02T01:15:27;13.50;99.90
43581;DHT22;29175;51.030;4.606;2023-05-02T01:17:55;13.50;99.90
43581;DHT22;29175;51.030;4.606;2023-05-02T01:20:25;13.40;99.90
43581;DHT22;29175;51.030;4.606;2023-05-02T01:22:54;13.40;99.90
43581;DHT22;29175;51.030;4.606;2023-05-02T01:25:28;13.40;99.90
43581;DHT22;29175;51.030;4.606;2023-05-02T01:28:26;13.30;99.90
43581;DHT22;29175;51.030;4.606;2023-05-02T01:30:54;13.40;99.90
43581;DHT22;29175;51.030;4.606;2023-05-02T01:33:22;13.50;99.90
43581;DHT22;29175;51.030;4.606;2023-05-02T01:35:50;13.70;99.90
43581;DHT22;29175;51.030;4.606;2023-05-02T01:38:18;13.70;99.90
43581;DHT22;29175;51.030;4.606;2023-05-02T01:40:44;13.60;99.90
43581;DHT22;29175;51.030;4.606;2023-05-02T01:43:12;13.70;99.90
43581;DHT22;29175;51.030;4.606;2023-05-02T01:45:40;13.70;99.90
43581;DHT22;29175;51.030;4.606;2023-05-02T01:48:08;13.70;99.90
43581;DHT22;29175;51.030;4.606;2023-05-02T01:50:35;13.70;99.90
43581;DHT22;29175;51.030;4.606;2023-05-02T01:53:03;13.60;99.90
43581;DHT22;29175;51.030;4.606;2023-05-02T01:55:30;13.60;99.90
43581;DHT22;29175;51.030;4.606;2023-05-02T01:57:59;13.50;99.90
43581;DHT22;29175;51.030;4.606;2023-05-02T02:00:25;13.50;99.90
43581;DHT22;29175;51.030;4.606;2023-05-02T02:02:53;13.30;99.90
43581;DHT22;29175;51.030;4.606;2023-05-02T02:05:21;13.20;99.90
43581;DHT22;29175;51.030;4.606;2023-05-02T02:07:47;13.10;99.90
43581;DHT22;29175;51.030;4.606;2023-05-02T02:10:13;12.90;99.90
43581;DHT22;29175;51.030;4.606;2023-05-02T02:12:41;12.80;99.90
43581;DHT22;29175;51.030;4.606;2023-05-02T02:17:42;12.20;99.90
43581;DHT22;29175;51.030;4.606;2023-05-02T02:20:11;12.20;99.90
43581;DHT22;29175;51.030;4.606;2023-05-02T02:22:39;12.30;99.90
43581;DHT22;29175;51.030;4.606;2023-05-02T02:25:07;12.20;99.90
43581;DHT22;29175;51.030;4.606;2023-05-02T02:27:36;12.40;99.90
43581;DHT22;29175;51.030;4.606;2023-05-02T02:30:02;12.40;99.90
43581;DHT22;29175;51.030;4.606;2023-05-02T02:32:28;12.30;99.90
43581;DHT22;29175;51.030;4.606;2023-05-02T02:34:54;12.30;99.90
43581;DHT22;29175;51.030;4.606;2023-05-02T02:37:28;12.40;99.90
43581;DHT22;29175;51.030;4.606;2023-05-02T02:40:20;12.40;99.90
43581;DHT22;29175;51.030;4.606;2023-05-02T02:43:05;12.30;99.90
43581;DHT22;29175;51.030;4.606;2023-05-02T02:48:31;12.40;99.90
43581;DHT22;29175;51.030;4.606;2023-05-02T02:56:33;12.60;99.90
43581;DHT22;29175;51.030;4.606;2023-05-02T02:59:15;12.70;99.90
43581;DHT22;29175;51.030;4.606;2023-05-02T03:01:47;12.80;99.90
43581;DHT22;29175;51.030;4.606;2023-05-02T03:04:15;12.80;99.90
43581;DHT22;29175;51.030;4.606;2023-05-02T03:06:41;12.70;99.90
43581;DHT22;29175;51.030;4.606;2023-05-02T03:09:14;12.70;99.90
43581;DHT22;29175;51.030;4.606;2023-05-02T03:11:42;12.60;99.90
43581;DHT22;29175;51.030;4.606;2023-05-02T03:14:08;12.60;99.90
43581;DHT22;29175;51.030;4.606;2023-05-02T03:16:38;12.60;99.90
43581;DHT22;29175;51.030;4.606;2023-05-02T03:19:04;12.80;99.90
43581;DHT22;29175;51.030;4.606;2023-05-02T03:21:32;12.80;99.90
43581;DHT22;29175;51.030;4.606;2023-05-02T03:24:02;12.80;99.90
43581;DHT22;29175;51.030;4.606;2023-05-02T03:26:28;12.80;99.90
43581;DHT22;29175;51.030;4.606;2023-05-02T03:28:54;12.80;99.90
43581;DHT22;29175;51.030;4.606;2023-05-02T03:31:21;12.70;99.90
43581;DHT22;29175;51.030;4.606;2023-05-02T03:33:47;12.70;99.90
43581;DHT22;29175;51.030;4.606;2023-05-02T03:36:13;12.70;99.90
43581;DHT22;29175;51.030;4.606;2023-05-02T03:38:39;12.70;99.90
43581;DHT22;29175;51.030;4.606;2023-05-02T03:41:05;12.60;99.90
43581;DHT22;29175;51.030;4.606;2023-05-02T03:43:31;12.60;99.90
43581;DHT22;29175;51.030;4.606;2023-05-02T03:45:57;12.50;99.90
43581;DHT22;29175;51.030;4.606;2023-05-02T03:48:28;12.50;99.90
43581;DHT22;29175;51.030;4.606;2023-05-02T03:50:54;12.40;99.90
43581;DHT22;29175;51.030;4.606;2023-05-02T03:53:19;12.40;99.90
43581;DHT22;29175;51.030;4.606;2023-05-02T03:55:45;12.40;99.90
43581;DHT22;29175;51.030;4.606;2023-05-02T03:58:11;12.40;99.90
43581;DHT22;29175;51.030;4.606;2023-05-02T04:00:36;12.30;99.90
43581;DHT22;29175;51.030;4.606;2023-05-02T04:03:05;12.30;99.90
43581;DHT22;29175;51.030;4.606;2023-05-02T04:05:31;12.30;99.90
43581;DHT22;29175;51.030;4.606;2023-05-02T04:07:57;12.30;99.90
43581;DHT22;29175;51.030;4.606;2023-05-02T04:10:23;12.30;99.90
43581;DHT22;29175;51.030;4.606;2023-05-02T04:12:48;12.30;99.90
43581;DHT22;29175;51.030;4.606;2023-05-02T04:15:14;12.40;99.90
43581;DHT22;29175;51.030;4.606;2023-05-02T04:17:40;12.50;99.90
43581;DHT22;29175;51.030;4.606;2023-05-02T04:20:07;12.50;99.90
43581;DHT22;29175;51.030;4.606;2023-05-02T04:22:33;12.60;99.90
43581;DHT22;29175;51.030;4.606;2023-05-02T04:24:59;12.60;99.90
43581;DHT22;29175;51.030;4.606;2023-05-02T04:27:25;12.60;99.90
43581;DHT22;29175;51.030;4.606;2023-05-02T04:29:51;12.60;99.90
43581;DHT22;29175;51.030;4.606;2023-05-02T04:32:21;12.60;99.90
43581;DHT22;29175;51.030;4.606;2023-05-02T04:34:46;12.70;99.90
43581;DHT22;29175;51.030;4.606;2023-05-02T04:37:12;12.70;99.90
43581;DHT22;29175;51.030;4.606;2023-05-02T04:39:38;12.80;99.90
43581;DHT22;29175;51.030;4.606;2023-05-02T04:42:04;12.80;99.90
43581;DHT22;29175;51.030;4.606;2023-05-02T04:44:29;12.70;99.90
43581;DHT22;29175;51.030;4.606;2023-05-02T04:46:55;12.70;99.90
43581;DHT22;29175;51.030;4.606;2023-05-02T04:49:21;12.70;99.90
43581;DHT22;29175;51.030;4.606;2023-05-02T04:51:47;12.70;99.90
43581;DHT22;29175;51.030;4.606;2023-05-02T04:54:13;12.80;99.90
43581;DHT22;29175;51.030;4.606;2023-05-02T04:56:38;12.80;99.90
43581;DHT22;29175;51.030;4.606;2023-05-02T04:59:04;12.90;99.90
43581;DHT22;29175;51.030;4.606;2023-05-02T05:01:30;13.00;99.90
43581;DHT22;29175;51.030;4.606;2023-05-02T05:03:56;13.10;99.90
43581;DHT22;29175;51.030;4.606;2023-05-02T05:06:21;13.20;99.90
43581;DHT22;29175;51.030;4.606;2023-05-02T05:08:47;13.30;99.90
43581;DHT22;29175;51.030;4.606;2023-05-02T05:11:13;13.30;99.90
43581;DHT22;29175;51.030;4.606;2023-05-02T05:13:42;13.20;99.90
43581;DHT22;29175;51.030;4.606;2023-05-02T05:16:08;12.80;99.90
43581;DHT22;29175;51.030;4.606;2023-05-02T05:18:34;12.40;99.90
43581;DHT22;29175;51.030;4.606;2023-05-02T05:21:06;12.40;99.90
43581;DHT22;29175;51.030;4.606;2023-05-02T05:23:32;12.60;99.90
43581;DHT22;29175;51.030;4.606;2023-05-02T05:33:56;12.30;99.90
43581;DHT22;29175;51.030;4.606;2023-05-02T05:43:39;12.30;99.90
43581;DHT22;29175;51.030;4.606;2023-05-02T05:46:05;12.40;99.90
43581;DHT22;29175;51.030;4.606;2023-05-02T05:48:31;12.40;99.90
43581;DHT22;29175;51.030;4.606;2023-05-02T05:50:57;12.60;99.90
43581;DHT22;29175;51.030;4.606;2023-05-02T05:53:22;12.70;99.90
43581;DHT22;29175;51.030;4.606;2023-05-02T05:55:48;12.60;99.90
43581;DHT22;29175;51.030;4.606;2023-05-02T05:58:14;12.70;99.90
43581;DHT22;29175;51.030;4.606;2023-05-02T06:00:39;12.90;99.90
43581;DHT22;29175;51.030;4.606;2023-05-02T06:03:06;13.00;99.90
43581;DHT22;29175;51.030;4.606;2023-05-02T06:05:32;12.80;99.90
43581;DHT22;29175;51.030;4.606;2023-05-02T06:07:58;12.60;99.90
43581;DHT22;29175;51.030;4.606;2023-05-02T06:10:24;12.50;99.90
43581;DHT22;29175;51.030;4.606;2023-05-02T06:12:50;12.50;99.90
43581;DHT22;29175;51.030;4.606;2023-05-02T06:15:16;12.50;99.90
43581;DHT22;29175;51.030;4.606;2023-05-02T06:17:42;12.60;99.90
43581;DHT22;29175;51.030;4.606;2023-05-02T06:20:08;12.60;99.90
43581;DHT22;29175;51.030;4.606;2023-05-02T06:22:35;12.50;99.90
43581;DHT22;29175;51.030;4.606;2023-05-02T06:25:00;12.50;99.90
43581;DHT22;29175;51.030;4.606;2023-05-02T06:27:26;12.40;99.90
43581;DHT22;29175;51.030;4.606;2023-05-02T06:29:52;12.30;99.90
43581;DHT22;29175;51.030;4.606;2023-05-02T06:32:18;12.50;99.90
43581;DHT22;29175;51.030;4.606;2023-05-02T06:34:44;12.60;99.90
43581;DHT22;29175;51.030;4.606;2023-05-02T06:37:10;13.00;99.90
43581;DHT22;29175;51.030;4.606;2023-05-02T06:39:36;13.00;99.90
43581;DHT22;29175;51.030;4.606;2023-05-02T06:42:02;13.20;99.90
43581;DHT22;29175;51.030;4.606;2023-05-02T06:44:28;13.20;99.90
43581;DHT22;29175;51.030;4.606;2023-05-02T06:46:54;13.00;99.90
43581;DHT22;29175;51.030;4.606;2023-05-02T06:49:20;12.80;99.90
43581;DHT22;29175;51.030;4.606;2023-05-02T06:51:46;12.90;99.90
43581;DHT22;29175;51.030;4.606;2023-05-02T06:54:12;13.30;99.90
43581;DHT22;29175;51.030;4.606;2023-05-02T06:56:39;13.50;99.90
43581;DHT22;29175;51.030;4.606;2023-05-02T06:59:05;13.70;99.90
43581;DHT22;29175;51.030;4.606;2023-05-02T07:01:30;13.60;99.90
43581;DHT22;29175;51.030;4.606;2023-05-02T07:03:56;14.10;99.90
43581;DHT22;29175;51.030;4.606;2023-05-02T07:06:22;16.00;99.90
43581;DHT22;29175;51.030;4.606;2023-05-02T07:08:48;17.60;97.60
43581;DHT22;29175;51.030;4.606;2023-05-02T07:11:14;18.70;95.20
43581;DHT22;29175;51.030;4.606;2023-05-02T07:13:40;19.50;94.00
43581;DHT22;29175;51.030;4.606;2023-05-02T07:16:06;19.10;93.40
43581;DHT22;29175;51.030;4.606;2023-05-02T07:18:32;18.40;94.10
43581;DHT22;29175;51.030;4.606;2023-05-02T07:20:57;17.90;94.40
43581;DHT22;29175;51.030;4.606;2023-05-02T07:23:23;17.70;95.20
43581;DHT22;29175;51.030;4.606;2023-05-02T07:25:49;17.50;95.30
43581;DHT22;29175;51.030;4.606;2023-05-02T07:28:15;17.50;96.10
43581;DHT22;29175;51.030;4.606;2023-05-02T07:30:41;18.20;94.90
43581;DHT22;29175;51.030;4.606;2023-05-02T07:33:06;18.20;94.30
43581;DHT22;29175;51.030;4.606;2023-05-02T07:35:32;17.70;94.70
43581;DHT22;29175;51.030;4.606;2023-05-02T07:37:58;17.40;94.70
43581;DHT22;29175;51.030;4.606;2023-05-02T07:40:24;17.10;95.50
43581;DHT22;29175;51.030;4.606;2023-05-02T07:42:49;17.10;95.20
43581;DHT22;29175;51.030;4.606;2023-05-02T07:45:15;16.70;95.30
43581;DHT22;29175;51.030;4.606;2023-05-02T07:47:41;16.40;96.00
43581;DHT22;29175;51.030;4.606;2023-05-02T07:50:07;16.90;95.90
43581;DHT22;29175;51.030;4.606;2023-05-02T07:52:33;17.50;94.80
43581;DHT22;29175;51.030;4.606;2023-05-02T07:54:59;17.90;93.60
43581;DHT22;29175;51.030;4.606;2023-05-02T07:57:25;17.90;93.10
43581;DHT22;29175;51.030;4.606;2023-05-02T07:59:51;17.50;93.90
43581;DHT22;29175;51.030;4.606;2023-05-02T08:02:17;17.10;94.70
43581;DHT22;29175;51.030;4.606;2023-05-02T08:04:45;18.70;93.40
43581;DHT22;29175;51.030;4.606;2023-05-02T08:07:12;19.70;91.90
43581;DHT22;29175;51.030;4.606;2023-05-02T08:09:37;20.30;91.60
43581;DHT22;29175;51.030;4.606;2023-05-02T08:12:03;20.30;90.80
43581;DHT22;29175;51.030;4.606;2023-05-02T08:14:29;19.80;90.20
43581;DHT22;29175;51.030;4.606;2023-05-02T08:16:56;20.10;91.40
43581;DHT22;29175;51.030;4.606;2023-05-02T08:19:22;22.40;88.40
43581;DHT22;29175;51.030;4.606;2023-05-02T08:21:47;23.00;83.30
43581;DHT22;29175;51.030;4.606;2023-05-02T08:24:13;22.40;84.10
43581;DHT22;29175;51.030;4.606;2023-05-02T08:26:39;22.40;84.20
43581;DHT22;29175;51.030;4.606;2023-05-02T08:29:05;21.30;87.90
43581;DHT22;29175;51.030;4.606;2023-05-02T08:31:30;20.70;87.10
43581;DHT22;29175;51.030;4.606;2023-05-02T08:33:56;20.50;87.60
43581;DHT22;29175;51.030;4.606;2023-05-02T08:36:24;20.30;88.60
43581;DHT22;29175;51.030;4.606;2023-05-02T08:38:49;19.60;89.30
43581;DHT22;29175;51.030;4.606;2023-05-02T08:41:16;20.70;87.40
43581;DHT22;29175;51.030;4.606;2023-05-02T08:43:43;22.00;87.50
43581;DHT22;29175;51.030;4.606;2023-05-02T08:46:11;22.50;85.60
43581;DHT22;29175;51.030;4.606;2023-05-02T08:48:40;23.40;84.50
43581;DHT22;29175;51.030;4.606;2023-05-02T08:51:15;25.70;78.50
43581;DHT22;29175;51.030;4.606;2023-05-02T08:53:41;26.70;75.00
43581;DHT22;29175;51.030;4.606;2023-05-02T08:56:08;27.50;72.40
43581;DHT22;29175;51.030;4.606;2023-05-02T08:58:39;27.10;72.00
43581;DHT22;29175;51.030;4.606;2023-05-02T09:01:15;27.30;73.20
43581;DHT22;29175;51.030;4.606;2023-05-02T09:03:46;29.20;69.50
43581;DHT22;29175;51.030;4.606;2023-05-02T09:06:13;28.50;68.80
43581;DHT22;29175;51.030;4.606;2023-05-02T09:08:40;28.00;70.50
43581;DHT22;29175;51.030;4.606;2023-05-02T09:11:08;26.80;72.30
43581;DHT22;29175;51.030;4.606;2023-05-02T09:13:45;25.70;74.30
43581;DHT22;29175;51.030;4.606;2023-05-02T09:16:13;26.60;73.50
43581;DHT22;29175;51.030;4.606;2023-05-02T09:18:47;27.90;71.40
43581;DHT22;29175;51.030;4.606;2023-05-02T09:21:16;30.50;68.60
43581;DHT22;29175;51.030;4.606;2023-05-02T09:23:44;31.60;66.00
43581;DHT22;29175;51.030;4.606;2023-05-02T09:28:48;32.30;61.80
43581;DHT22;29175;51.030;4.606;2023-05-02T09:31:30;34.30;59.40
43581;DHT22;29175;51.030;4.606;2023-05-02T09:34:16;34.00;60.10
43581;DHT22;29175;51.030;4.606;2023-05-02T09:36:47;32.90;59.80
43581;DHT22;29175;51.030;4.606;2023-05-02T09:39:21;33.40;59.70
43581;DHT22;29175;51.030;4.606;2023-05-02T09:41:48;34.30;58.80
43581;DHT22;29175;51.030;4.606;2023-05-02T09:44:22;34.00;58.10
43581;DHT22;29175;51.030;4.606;2023-05-02T09:46:50;33.90;59.40
43581;DHT22;29175;51.030;4.606;2023-05-02T09:49:17;34.00;58.90
43581;DHT22;29175;51.030;4.606;2023-05-02T09:51:44;34.90;57.80
43581;DHT22;29175;51.030;4.606;2023-05-02T09:54:11;36.70;57.30
43581;DHT22;29175;51.030;4.606;2023-05-02T09:56:57;36.70;55.60
43581;DHT22;29175;51.030;4.606;2023-05-02T09:59:23;37.30;53.60
43581;DHT22;29175;51.030;4.606;2023-05-02T10:02:03;35.00;54.90
43581;DHT22;29175;51.030;4.606;2023-05-02T10:04:30;33.30;57.00
43581;DHT22;29175;51.030;4.606;2023-05-02T10:06:57;34.30;57.50
43581;DHT22;29175;51.030;4.606;2023-05-02T10:09:25;36.70;55.50
43581;DHT22;29175;51.030;4.606;2023-05-02T10:11:55;35.80;54.90
43581;DHT22;29175;51.030;4.606;2023-05-02T10:14:22;35.80;54.30
43581;DHT22;29175;51.030;4.606;2023-05-02T10:20:06;33.70;56.20
43581;DHT22;29175;51.030;4.606;2023-05-02T10:22:33;31.00;59.50
43581;DHT22;29175;51.030;4.606;2023-05-02T10:25:01;29.30;61.30
43581;DHT22;29175;51.030;4.606;2023-05-02T10:27:31;27.10;64.40
43581;DHT22;29175;51.030;4.606;2023-05-02T10:30:00;26.00;65.60
43581;DHT22;29175;51.030;4.606;2023-05-02T10:32:28;25.30;67.30
43581;DHT22;29175;51.030;4.606;2023-05-02T10:34:56;25.40;66.40
43581;DHT22;29175;51.030;4.606;2023-05-02T10:37:28;24.90;68.60
43581;DHT22;29175;51.030;4.606;2023-05-02T10:39:54;25.80;66.20
43581;DHT22;29175;51.030;4.606;2023-05-02T10:42:20;26.60;65.10
43581;DHT22;29175;51.030;4.606;2023-05-02T10:44:46;26.60;67.70
43581;DHT22;29175;51.030;4.606;2023-05-02T10:47:22;26.90;65.60
43581;DHT22;29175;51.030;4.606;2023-05-02T10:49:58;26.30;66.20
43581;DHT22;29175;51.030;4.606;2023-05-02T10:52:37;26.60;64.40
43581;DHT22;29175;51.030;4.606;2023-05-02T10:55:21;26.40;64.50
43581;DHT22;29175;51.030;4.606;2023-05-02T11:00:26;29.10;59.10
43581;DHT22;29175;51.030;4.606;2023-05-02T11:02:52;31.40;60.00
43581;DHT22;29175;51.030;4.606;2023-05-02T11:05:18;32.30;58.40
43581;DHT22;29175;51.030;4.606;2023-05-02T11:07:44;32.80;58.10
43581;DHT22;29175;51.030;4.606;2023-05-02T11:12:45;32.10;57.30
43581;DHT22;29175;51.030;4.606;2023-05-02T11:15:12;32.30;56.80
43581;DHT22;29175;51.030;4.606;2023-05-02T11:18:04;32.00;56.50
43581;DHT22;29175;51.030;4.606;2023-05-02T11:20:35;33.70;54.90
43581;DHT22;29175;51.030;4.606;2023-05-02T11:25:47;30.20;57.80
43581;DHT22;29175;51.030;4.606;2023-05-02T11:31:01;27.30;63.50
43581;DHT22;29175;51.030;4.606;2023-05-02T11:33:30;26.10;63.30
43581;DHT22;29175;51.030;4.606;2023-05-02T11:35:56;25.50;67.00
43581;DHT22;29175;51.030;4.606;2023-05-02T11:38:27;24.50;67.00
43581;DHT22;29175;51.030;4.606;2023-05-02T11:41:00;23.90;69.20
43581;DHT22;29175;51.030;4.606;2023-05-02T11:43:27;23.80;70.30
43581;DHT22;29175;51.030;4.606;2023-05-02T11:45:54;23.40;71.40
43581;DHT22;29175;51.030;4.606;2023-05-02T11:48:22;23.20;71.30
43581;DHT22;29175;51.030;4.606;2023-05-02T11:50:56;22.80;69.40
43581;DHT22;29175;51.030;4.606;2023-05-02T11:53:26;23.20;71.30
43581;DHT22;29175;51.030;4.606;2023-05-02T11:55:59;22.30;71.10
43581;DHT22;29175;51.030;4.606;2023-05-02T11:58:30;22.20;70.90
43581;DHT22;29175;51.030;4.606;2023-05-02T12:00:57;21.80;72.70
43581;DHT22;29175;51.030;4.606;2023-05-02T12:03:31;21.70;75.40
43581;DHT22;29175;51.030;4.606;2023-05-02T12:06:16;21.70;74.80
43581;DHT22;29175;51.030;4.606;2023-05-02T12:08:44;21.30;75.00
43581;DHT22;29175;51.030;4.606;2023-05-02T12:11:13;20.70;76.00
43581;DHT22;29175;51.030;4.606;2023-05-02T12:13:47;20.50;76.30
43581;DHT22;29175;51.030;4.606;2023-05-02T12:16:14;20.50;75.60
43581;DHT22;29175;51.030;4.606;2023-05-02T12:18:40;20.30;75.60
43581;DHT22;29175;51.030;4.606;2023-05-02T12:21:07;20.50;80.20
43581;DHT22;29175;51.030;4.606;2023-05-02T12:23:32;20.40;75.90
43581;DHT22;29175;51.030;4.606;2023-05-02T12:25:58;20.10;75.20
43581;DHT22;29175;51.030;4.606;2023-05-02T12:28:24;19.80;77.30
43581;DHT22;29175;51.030;4.606;2023-05-02T12:30:51;19.60;75.90
43581;DHT22;29175;51.030;4.606;2023-05-02T12:33:17;19.70;76.90
43581;DHT22;29175;51.030;4.606;2023-05-02T12:35:43;19.60;77.40
43581;DHT22;29175;51.030;4.606;2023-05-02T12:38:18;19.40;79.80
43581;DHT22;29175;51.030;4.606;2023-05-02T12:40:49;19.40;79.10
43581;DHT22;29175;51.030;4.606;2023-05-02T12:43:15;19.60;80.30
43581;DHT22;29175;51.030;4.606;2023-05-02T12:45:41;19.70;78.90
43581;DHT22;29175;51.030;4.606;2023-05-02T12:48:22;19.60;78.50
43581;DHT22;29175;51.030;4.606;2023-05-02T12:50:48;19.40;78.30
43581;DHT22;29175;51.030;4.606;2023-05-02T12:53:15;19.10;79.00
43581;DHT22;29175;51.030;4.606;2023-05-02T12:55:41;19.10;79.10
43581;DHT22;29175;51.030;4.606;2023-05-02T12:58:08;18.90;79.10
43581;DHT22;29175;51.030;4.606;2023-05-02T13:00:37;18.80;79.90
43581;DHT22;29175;51.030;4.606;2023-05-02T13:03:03;18.90;78.30
43581;DHT22;29175;51.030;4.606;2023-05-02T13:05:29;19.10;79.70
43581;DHT22;29175;51.030;4.606;2023-05-02T13:07:55;19.00;78.70
43581;DHT22;29175;51.030;4.606;2023-05-02T13:10:22;19.10;78.40
43581;DHT22;29175;51.030;4.606;2023-05-02T13:12:50;19.30;77.60
43581;DHT22;29175;51.030;4.606;2023-05-02T13:15:17;19.40;78.80
43581;DHT22;29175;51.030;4.606;2023-05-02T13:17:43;19.40;79.30
43581;DHT22;29175;51.030;4.606;2023-05-02T13:20:09;19.20;79.50
43581;DHT22;29175;51.030;4.606;2023-05-02T13:22:35;19.10;78.20
43581;DHT22;29175;51.030;4.606;2023-05-02T13:25:03;19.20;79.60
43581;DHT22;29175;51.030;4.606;2023-05-02T13:27:29;19.10;78.60
43581;DHT22;29175;51.030;4.606;2023-05-02T13:29:54;18.90;78.60
43581;DHT22;29175;51.030;4.606;2023-05-02T13:32:20;19.10;78.80
43581;DHT22;29175;51.030;4.606;2023-05-02T13:34:46;19.00;76.60
43581;DHT22;29175;51.030;4.606;2023-05-02T13:37:12;19.10;77.40
43581;DHT22;29175;51.030;4.606;2023-05-02T13:39:38;19.10;78.60
43581;DHT22;29175;51.030;4.606;2023-05-02T13:42:04;18.80;78.90
43581;DHT22;29175;51.030;4.606;2023-05-02T13:44:30;18.80;77.90
43581;DHT22;29175;51.030;4.606;2023-05-02T13:46:57;18.80;80.00
43581;DHT22;29175;51.030;4.606;2023-05-02T13:49:23;18.50;80.50
43581;DHT22;29175;51.030;4.606;2023-05-02T13:51:49;18.40;77.10
43581;DHT22;29175;51.030;4.606;2023-05-02T13:54:15;18.30;78.10
43581;DHT22;29175;51.030;4.606;2023-05-02T13:56:41;18.20;79.80
43581;DHT22;29175;51.030;4.606;2023-05-02T13:59:07;18.40;79.00
43581;DHT22;29175;51.030;4.606;2023-05-02T14:01:33;18.20;79.40
43581;DHT22;29175;51.030;4.606;2023-05-02T14:03:59;18.30;80.80
43581;DHT22;29175;51.030;4.606;2023-05-02T14:06:31;18.20;80.70
43581;DHT22;29175;51.030;4.606;2023-05-02T14:08:57;18.10;83.50
43581;DHT22;29175;51.030;4.606;2023-05-02T14:11:23;18.30;81.40
43581;DHT22;29175;51.030;4.606;2023-05-02T14:13:49;18.00;78.10
43581;DHT22;29175;51.030;4.606;2023-05-02T14:16:14;17.70;77.20
43581;DHT22;29175;51.030;4.606;2023-05-02T14:18:40;17.80;76.50
43581;DHT22;29175;51.030;4.606;2023-05-02T14:21:06;17.80;77.00
43581;DHT22;29175;51.030;4.606;2023-05-02T14:23:32;17.90;78.90
43581;DHT22;29175;51.030;4.606;2023-05-02T14:25:58;18.00;79.40
43581;DHT22;29175;51.030;4.606;2023-05-02T14:28:24;18.00;79.10
43581;DHT22;29175;51.030;4.606;2023-05-02T14:30:51;18.10;79.80
43581;DHT22;29175;51.030;4.606;2023-05-02T14:33:17;18.20;79.70
43581;DHT22;29175;51.030;4.606;2023-05-02T14:35:43;18.10;80.40
43581;DHT22;29175;51.030;4.606;2023-05-02T14:38:09;18.10;76.90
43581;DHT22;29175;51.030;4.606;2023-05-02T14:40:34;18.20;78.40
43581;DHT22;29175;51.030;4.606;2023-05-02T14:43:00;18.20;80.00
43581;DHT22;29175;51.030;4.606;2023-05-02T14:45:26;18.20;78.20
43581;DHT22;29175;51.030;4.606;2023-05-02T14:47:52;18.30;79.00
43581;DHT22;29175;51.030;4.606;2023-05-02T14:50:18;18.20;79.80
43581;DHT22;29175;51.030;4.606;2023-05-02T14:52:43;18.20;77.30
43581;DHT22;29175;51.030;4.606;2023-05-02T14:55:12;18.20;76.00
43581;DHT22;29175;51.030;4.606;2023-05-02T14:57:38;18.20;78.20
43581;DHT22;29175;51.030;4.606;2023-05-02T15:00:04;18.00;77.90
43581;DHT22;29175;51.030;4.606;2023-05-02T15:02:34;17.80;78.70
43581;DHT22;29175;51.030;4.606;2023-05-02T15:05:00;17.70;78.70
43581;DHT22;29175;51.030;4.606;2023-05-02T15:07:26;17.80;77.00
43581;DHT22;29175;51.030;4.606;2023-05-02T15:09:53;17.80;76.40
43581;DHT22;29175;51.030;4.606;2023-05-02T15:12:18;17.60;77.70
43581;DHT22;29175;51.030;4.606;2023-05-02T15:14:44;17.60;77.30
43581;DHT22;29175;51.030;4.606;2023-05-02T15:17:10;17.50;78.90
43581;DHT22;29175;51.030;4.606;2023-05-02T15:19:36;17.50;79.90
43581;DHT22;29175;51.030;4.606;2023-05-02T15:22:01;17.60;78.20
43581;DHT22;29175;51.030;4.606;2023-05-02T15:24:27;17.70;76.80
43581;DHT22;29175;51.030;4.606;2023-05-02T15:26:53;17.40;78.10
43581;DHT22;29175;51.030;4.606;2023-05-02T15:29:19;17.30;78.40
43581;DHT22;29175;51.030;4.606;2023-05-02T15:31:45;17.30;77.90
43581;DHT22;29175;51.030;4.606;2023-05-02T15:34:10;17.40;77.90
43581;DHT22;29175;51.030;4.606;2023-05-02T15:36:36;17.40;77.30
43581;DHT22;29175;51.030;4.606;2023-05-02T15:39:03;17.40;77.80
43581;DHT22;29175;51.030;4.606;2023-05-02T15:41:29;17.30;78.70
43581;DHT22;29175;51.030;4.606;2023-05-02T15:43:56;17.40;78.00
43581;DHT22;29175;51.030;4.606;2023-05-02T15:46:22;17.50;76.10
43581;DHT22;29175;51.030;4.606;2023-05-02T15:48:48;17.30;77.30
43581;DHT22;29175;51.030;4.606;2023-05-02T15:51:17;17.10;78.10
43581;DHT22;29175;51.030;4.606;2023-05-02T15:53:46;17.20;75.90
43581;DHT22;29175;51.030;4.606;2023-05-02T15:56:14;17.00;76.70
43581;DHT22;29175;51.030;4.606;2023-05-02T15:58:41;17.20;79.00
43581;DHT22;29175;51.030;4.606;2023-05-02T16:01:08;16.90;78.10
43581;DHT22;29175;51.030;4.606;2023-05-02T16:03:33;17.10;77.00
43581;DHT22;29175;51.030;4.606;2023-05-02T16:05:59;16.80;78.20
43581;DHT22;29175;51.030;4.606;2023-05-02T16:08:26;16.70;78.90
43581;DHT22;29175;51.030;4.606;2023-05-02T16:10:52;16.70;79.60
43581;DHT22;29175;51.030;4.606;2023-05-02T16:13:18;16.60;78.40
43581;DHT22;29175;51.030;4.606;2023-05-02T16:15:44;16.80;78.90
43581;DHT22;29175;51.030;4.606;2023-05-02T16:18:12;16.70;79.30
43581;DHT22;29175;51.030;4.606;2023-05-02T16:20:38;16.70;79.50
43581;DHT22;29175;51.030;4.606;2023-05-02T16:23:04;16.70;79.80